Time;durP1;ratioP1;P1;durP2;ratioP2;P2;SDS_P1;SDS_P2;PMS_P1;PMS_P2;Temp;Humidity;BMP_temperature;BMP_pressure;BME280_temperature;BME280_humidity;BME280_pressure;Samples;Min_cycle;Max_cycle;Signal;HPM_P1;HPM_P2
2022/06/30 00:01:00;;;;;;;0.32;0.32;;;29.50;38.80;;;;;;5073415;28;20043;-47
2022/06/30 00:03:27;;;;;;;1.45;0.00;;;29.40;38.70;;;;;;5078581;28;20057;-47
2022/06/30 00:05:56;;;;;;;0.00;0.00;;;29.40;38.70;;;;;;5072470;28;20063;-49
2022/06/30 00:08:23;;;;;;;0.38;0.00;;;29.40;38.70;;;;;;5075982;28;20420;-48
2022/06/30 00:10:50;;;;;;;0.00;0.00;;;29.40;38.80;;;;;;5072289;28;20040;-49
2022/06/30 00:13:17;;;;;;;0.20;0.10;;;29.40;38.80;;;;;;5073859;28;20082;-51
2022/06/30 00:15:44;;;;;;;0.70;0.00;;;29.40;38.80;;;;;;5074008;28;20122;-47
2022/06/30 00:18:11;;;;;;;1.35;0.00;;;29.40;38.80;;;;;;5077195;28;20151;-49
2022/06/30 00:20:38;;;;;;;0.10;0.10;;;29.40;38.90;;;;;;5078106;28;20040;-51
2022/06/30 00:23:07;;;;;;;0.38;0.00;;;29.40;38.90;;;;;;5074491;28;20052;-46
2022/06/30 00:25:34;;;;;;;0.20;0.00;;;29.40;38.90;;;;;;5081990;28;20063;-49
2022/06/30 00:28:01;;;;;;;0.00;0.00;;;29.40;38.90;;;;;;5072417;28;20048;-48
2022/06/30 00:30:28;;;;;;;0.30;0.13;;;29.40;38.90;;;;;;5075861;28;20041;-47
2022/06/30 00:32:55;;;;;;;0.50;0.10;;;29.40;39.00;;;;;;5083008;28;20098;-46
2022/06/30 00:35:22;;;;;;;1.17;0.00;;;29.30;38.90;;;;;;5076127;28;20432;-47
2022/06/30 00:37:49;;;;;;;0.30;0.00;;;29.40;39.00;;;;;;5079555;28;20131;-51
2022/06/30 00:40:18;;;;;;;0.47;0.08;;;29.30;38.90;;;;;;5073769;28;20052;-46
2022/06/30 00:42:45;;;;;;;0.63;0.08;;;29.30;38.90;;;;;;5088645;28;20458;-47
2022/06/30 00:45:12;;;;;;;0.00;0.00;;;29.30;38.90;;;;;;5072899;28;20045;-46
2022/06/30 00:47:39;;;;;;;0.68;0.10;;;29.30;39.60;;;;;;5078907;28;20036;-50
2022/06/30 00:50:08;;;;;;;0.05;0.00;;;29.30;38.90;;;;;;5082734;28;20043;-50
2022/06/30 00:52:37;;;;;;;0.30;0.00;;;29.30;39.00;;;;;;5069851;28;20048;-48
2022/06/30 00:55:05;;;;;;;0.13;0.13;;;29.20;38.90;;;;;;5073336;28;20033;-49
2022/06/30 00:57:35;;;;;;;0.10;0.00;;;29.20;39.00;;;;;;5073737;28;20060;-51
2022/06/30 01:00:04;;;;;;;0.35;0.35;;;29.20;39.00;;;;;;5073585;28;20540;-48
2022/06/30 01:02:33;;;;;;;0.77;0.00;;;29.20;39.00;;;;;;5076643;28;20058;-51
2022/06/30 01:05:01;;;;;;;0.68;0.13;;;29.20;39.10;;;;;;5076117;28;20455;-50
2022/06/30 01:07:29;;;;;;;0.30;0.00;;;29.20;39.10;;;;;;5068826;28;20040;-48
2022/06/30 01:12:46;;;;;;;1.00;0.38;;;29.10;39.10;;;;;;5074945;28;20041;-48
2022/06/30 01:15:14;;;;;;;0.00;0.00;;;29.20;39.20;;;;;;5073794;28;20049;-47
2022/06/30 01:17:42;;;;;;;0.63;0.00;;;29.10;39.10;;;;;;5074299;28;20044;-47
2022/06/30 01:20:10;;;;;;;0.10;0.00;;;29.10;39.10;;;;;;5073470;28;20410;-45
2022/06/30 01:22:39;;;;;;;0.30;0.30;;;29.10;39.20;;;;;;5072436;28;20540;-49
2022/06/30 01:25:08;;;;;;;0.00;0.00;;;29.10;39.20;;;;;;5069722;28;20483;-52
2022/06/30 01:27:35;;;;;;;0.15;0.00;;;29.10;39.20;;;;;;5076419;28;20507;-47
2022/06/30 01:30:03;;;;;;;0.10;0.10;;;29.10;39.20;;;;;;5080679;28;20045;-51
2022/06/30 01:32:31;;;;;;;0.00;0.00;;;29.10;39.20;;;;;;5074491;28;20127;-46
2022/06/30 01:34:58;;;;;;;0.20;0.00;;;29.10;39.20;;;;;;5072710;28;20136;-47
2022/06/30 01:37:25;;;;;;;0.13;0.00;;;29.10;39.20;;;;;;5069731;28;20037;-49
2022/06/30 01:39:53;;;;;;;0.28;0.00;;;29.10;39.20;;;;;;5076074;28;20041;-46
2022/06/30 01:42:21;;;;;;;0.00;0.00;;;29.10;39.20;;;;;;5084876;28;20580;-46
2022/06/30 01:44:48;;;;;;;0.05;0.00;;;29.00;39.20;;;;;;5059819;28;20040;-46
2022/06/30 01:47:15;;;;;;;0.10;0.08;;;29.00;39.20;;;;;;5075053;28;20060;-49
2022/06/30 01:49:42;;;;;;;0.10;0.10;;;29.00;39.20;;;;;;5072721;28;20043;-49
2022/06/30 01:52:09;;;;;;;0.00;0.00;;;29.00;39.20;;;;;;5066406;28;20120;-51
2022/06/30 01:54:36;;;;;;;0.00;0.00;;;29.00;39.30;;;;;;5076609;28;20497;-49
2022/06/30 01:57:06;;;;;;;0.75;0.08;;;29.00;39.30;;;;;;5077428;28;20041;-49
2022/06/30 01:59:33;;;;;;;0.00;0.00;;;29.00;39.30;;;;;;5071000;28;20493;-48
2022/06/30 02:02:00;;;;;;;0.43;0.00;;;29.00;39.30;;;;;;5072298;28;20509;-45
2022/06/30 02:07:11;;;;;;;1.73;0.20;;;29.00;39.30;;;;;;5081976;28;20068;-51
2022/06/30 02:09:39;;;;;;;0.20;0.00;;;29.00;39.40;;;;;;5074950;28;20094;-50
2022/06/30 02:14:54;;;;;;;0.00;0.00;;;29.00;39.40;;;;;;5075021;28;20517;-48
2022/06/30 02:17:21;;;;;;;0.00;0.00;;;28.90;39.30;;;;;;5077138;28;20032;-49
2022/06/30 02:19:48;;;;;;;0.20;0.00;;;29.00;39.40;;;;;;5075147;28;20046;-51
2022/06/30 02:22:16;;;;;;;1.00;0.03;;;28.90;39.40;;;;;;5074222;28;20128;-47
2022/06/30 02:24:43;;;;;;;0.15;0.05;;;28.90;39.40;;;;;;5077497;28;20416;-46
2022/06/30 02:27:12;;;;;;;0.00;0.00;;;28.90;39.40;;;;;;5073479;28;20416;-49
2022/06/30 02:29:39;;;;;;;0.98;0.20;;;28.90;39.40;;;;;;5082716;28;20068;-51
2022/06/30 02:32:08;;;;;;;0.10;0.00;;;28.90;39.40;;;;;;5074472;28;20040;-48
2022/06/30 02:34:35;;;;;;;0.55;0.00;;;28.90;39.50;;;;;;5073193;28;20462;-43
2022/06/30 02:37:02;;;;;;;0.10;0.00;;;28.90;39.40;;;;;;5074100;28;20045;-46
2022/06/30 02:39:29;;;;;;;0.00;0.00;;;28.90;39.50;;;;;;5091796;28;20043;-45
2022/06/30 02:41:55;;;;;;;0.10;0.00;;;28.90;39.50;;;;;;5083410;28;20044;-47
2022/06/30 02:44:24;;;;;;;1.05;0.00;;;28.80;39.40;;;;;;5083949;28;20405;-47
2022/06/30 02:46:51;;;;;;;0.80;0.10;;;28.90;39.50;;;;;;5073433;28;20043;-50
2022/06/30 02:49:19;;;;;;;0.10;0.00;;;28.80;39.40;;;;;;5075135;28;20106;-52
2022/06/30 02:51:46;;;;;;;0.40;0.00;;;28.80;39.40;;;;;;5073959;28;20935;-44
2022/06/30 02:54:14;;;;;;;0.65;0.20;;;28.80;39.50;;;;;;5078079;28;20054;-45
2022/06/30 02:56:41;;;;;;;1.08;0.10;;;28.80;39.50;;;;;;5078826;28;20032;-46
2022/06/30 02:59:08;;;;;;;0.10;0.00;;;28.80;39.50;;;;;;5074173;28;20037;-47
2022/06/30 03:01:37;;;;;;;1.10;0.10;;;28.80;39.50;;;;;;5070894;28;20089;-51
2022/06/30 03:04:04;;;;;;;0.10;0.00;;;28.80;39.50;;;;;;5074114;28;20930;-49
2022/06/30 03:06:33;;;;;;;0.57;0.45;;;28.80;39.50;;;;;;5085773;28;20059;-49
2022/06/30 03:09:01;;;;;;;0.20;0.00;;;28.80;39.50;;;;;;5072474;28;20045;-51
2022/06/30 03:11:28;;;;;;;1.40;0.10;;;28.80;39.50;;;;;;5076146;28;20036;-51
2022/06/30 03:13:55;;;;;;;0.10;0.10;;;28.80;39.50;;;;;;5073613;28;20043;-49
2022/06/30 03:16:22;;;;;;;0.60;0.00;;;28.80;39.50;;;;;;5073831;28;20078;-50
2022/06/30 03:18:52;;;;;;;0.10;0.00;;;28.80;39.50;;;;;;5085735;28;20044;-47
2022/06/30 03:21:20;;;;;;;0.20;0.00;;;28.80;39.50;;;;;;5077399;28;20035;-48
2022/06/30 03:23:48;;;;;;;0.10;0.00;;;28.80;39.50;;;;;;5081175;28;20071;-46
2022/06/30 03:26:16;;;;;;;0.15;0.00;;;28.80;39.50;;;;;;5073030;28;20041;-50
2022/06/30 03:28:43;;;;;;;0.20;0.00;;;28.80;39.60;;;;;;5070003;28;20047;-48
2022/06/30 03:31:10;;;;;;;0.60;0.10;;;28.80;39.60;;;;;;5072610;28;20048;-45
2022/06/30 03:33:38;;;;;;;0.38;0.10;;;28.80;39.60;;;;;;5080189;28;20070;-48
2022/06/30 03:36:06;;;;;;;0.25;0.20;;;28.80;39.60;;;;;;5072379;28;20047;-47
2022/06/30 03:38:33;;;;;;;0.20;0.03;;;28.80;39.60;;;;;;5076560;28;20064;-46
2022/06/30 03:41:01;;;;;;;0.10;0.10;;;28.70;39.60;;;;;;5073570;28;20677;-48
2022/06/30 03:43:28;;;;;;;0.70;0.00;;;28.80;39.60;;;;;;5082843;28;20123;-48
2022/06/30 03:45:55;;;;;;;0.13;0.13;;;28.70;39.60;;;;;;5073785;28;20037;-47
2022/06/30 03:48:22;;;;;;;0.38;0.08;;;28.70;39.60;;;;;;5076341;28;20161;-48
2022/06/30 03:50:49;;;;;;;0.15;0.00;;;28.70;39.60;;;;;;5072693;28;20037;-46
2022/06/30 03:53:17;;;;;;;0.38;0.00;;;28.70;39.60;;;;;;5070747;28;20583;-47
2022/06/30 03:55:44;;;;;;;0.57;0.00;;;28.70;39.60;;;;;;5073183;28;20036;-46
2022/06/30 03:58:11;;;;;;;0.15;0.00;;;28.70;39.60;;;;;;5072780;28;20098;-45
2022/06/30 04:00:38;;;;;;;0.30;0.00;;;28.70;39.60;;;;;;5073350;28;20037;-44
2022/06/30 04:03:06;;;;;;;0.52;0.10;;;28.70;39.60;;;;;;5074214;28;20136;-45
2022/06/30 04:05:33;;;;;;;0.28;0.13;;;28.70;39.60;;;;;;5023201;28;1518758;-45
2022/06/30 04:08:00;;;;;;;0.55;0.10;;;28.70;39.60;;;;;;5072812;28;20508;-45
2022/06/30 04:10:29;;;;;;;0.30;0.20;;;28.70;39.60;;;;;;5069692;28;20032;-47
2022/06/30 04:12:56;;;;;;;0.95;0.20;;;28.70;39.60;;;;;;5074137;28;20037;-49
2022/06/30 04:15:23;;;;;;;0.82;0.20;;;28.70;39.60;;;;;;5078452;28;20032;-45
2022/06/30 04:17:50;;;;;;;0.35;0.00;;;28.70;39.60;;;;;;5072244;28;20151;-45
2022/06/30 04:20:17;;;;;;;0.68;0.00;;;28.70;39.70;;;;;;5075215;28;20043;-45
2022/06/30 04:22:45;;;;;;;1.02;0.28;;;28.70;39.70;;;;;;5075071;28;20036;-47
2022/06/30 04:25:13;;;;;;;0.00;0.00;;;28.70;39.70;;;;;;5073884;28;20037;-48
2022/06/30 04:27:45;;;;;;;0.00;0.00;;;28.70;39.70;;;;;;5074418;28;20074;-45
2022/06/30 04:30:14;;;;;;;0.20;0.00;;;28.70;39.70;;;;;;5077950;28;20068;-48
2022/06/30 04:32:41;;;;;;;0.10;0.00;;;28.60;39.60;;;;;;5078971;28;20055;-46
2022/06/30 04:35:11;;;;;;;0.80;0.10;;;28.70;39.70;;;;;;5072082;28;20421;-48
2022/06/30 04:37:38;;;;;;;0.32;0.05;;;28.70;39.70;;;;;;5071210;28;20096;-45
2022/06/30 04:42:52;;;;;;;0.22;0.00;;;28.70;39.70;;;;;;5077620;28;20187;-47
2022/06/30 04:45:19;;;;;;;0.00;0.00;;;28.60;39.70;;;;;;5076078;28;20044;-44
2022/06/30 04:47:46;;;;;;;1.38;0.10;;;28.60;39.70;;;;;;5076719;28;20102;-48
2022/06/30 04:50:13;;;;;;;0.28;0.00;;;28.60;39.70;;;;;;5075400;28;20039;-50
2022/06/30 04:52:40;;;;;;;0.45;0.00;;;28.60;39.70;;;;;;5073884;28;20039;-50
2022/06/30 04:55:09;;;;;;;0.10;0.00;;;28.60;39.70;;;;;;5083670;28;20040;-45
2022/06/30 04:57:36;;;;;;;0.80;0.20;;;28.60;39.70;;;;;;5077609;28;20041;-46
2022/06/30 05:00:06;;;;;;;0.20;0.00;;;28.60;39.70;;;;;;5071703;28;20040;-45
2022/06/30 05:02:33;;;;;;;0.45;0.03;;;28.60;39.80;;;;;;5073582;28;20737;-46
2022/06/30 05:05:00;;;;;;;0.75;0.00;;;28.60;39.80;;;;;;5073117;28;20066;-49
2022/06/30 05:07:28;;;;;;;0.45;0.00;;;28.60;39.80;;;;;;5071945;28;20037;-47
2022/06/30 05:09:55;;;;;;;1.75;0.10;;;28.60;39.80;;;;;;5072139;28;20036;-48
2022/06/30 05:12:22;;;;;;;2.08;0.17;;;28.60;39.80;;;;;;5074851;28;20044;-49
2022/06/30 05:14:50;;;;;;;0.35;0.28;;;28.60;39.80;;;;;;5074754;28;20037;-51
2022/06/30 05:17:18;;;;;;;0.10;0.00;;;28.60;39.80;;;;;;5070907;28;20576;-45
2022/06/30 05:19:45;;;;;;;0.95;0.20;;;28.60;39.80;;;;;;5070969;28;20040;-50
2022/06/30 05:22:12;;;;;;;0.57;0.03;;;28.60;39.90;;;;;;5069922;28;20509;-47
2022/06/30 05:27:25;;;;;;;0.33;0.10;;;28.60;39.90;;;;;;5072837;28;20053;-51
2022/06/30 05:29:52;;;;;;;0.10;0.00;;;28.60;39.90;;;;;;5075604;28;20055;-47
2022/06/30 05:32:21;;;;;;;0.43;0.10;;;28.60;39.90;;;;;;5074149;28;20062;-49
2022/06/30 05:34:48;;;;;;;1.08;0.10;;;28.60;40.00;;;;;;5072333;28;20044;-49
2022/06/30 05:37:15;;;;;;;0.75;0.10;;;28.60;40.00;;;;;;5067298;28;20552;-47
2022/06/30 05:39:42;;;;;;;1.38;0.30;;;28.50;39.90;;;;;;5075262;28;20036;-45
2022/06/30 05:42:09;;;;;;;0.63;0.00;;;28.50;39.90;;;;;;5076792;28;20063;-48
2022/06/30 05:44:36;;;;;;;1.38;0.03;;;28.60;40.00;;;;;;5071198;28;20377;-47
2022/06/30 05:47:04;;;;;;;0.03;0.00;;;28.50;40.00;;;;;;5051191;28;20552;-46
2022/06/30 05:49:33;;;;;;;0.50;0.45;;;28.50;40.00;;;;;;5070000;28;20394;-48
2022/06/30 05:52:00;;;;;;;0.10;0.10;;;28.50;40.00;;;;;;5073998;28;20043;-48
2022/06/30 05:54:27;;;;;;;0.30;0.05;;;28.50;40.00;;;;;;5072736;28;20047;-47
2022/06/30 05:56:54;;;;;;;0.30;0.10;;;28.50;40.00;;;;;;5074295;28;20068;-47
2022/06/30 05:59:22;;;;;;;0.73;0.00;;;28.50;40.10;;;;;;5075149;28;20040;-47
2022/06/30 06:01:49;;;;;;;1.55;0.10;;;28.50;40.10;;;;;;5039892;28;20050;-46
2022/06/30 06:04:16;;;;;;;0.13;0.00;;;28.50;40.10;;;;;;5066537;28;20102;-46
2022/06/30 06:06:45;;;;;;;0.10;0.00;;;28.50;40.10;;;;;;5076243;28;20037;-50
2022/06/30 06:09:12;;;;;;;0.03;0.03;;;28.50;40.10;;;;;;5073508;28;20040;-48
2022/06/30 06:11:39;;;;;;;0.10;0.00;;;28.50;40.10;;;;;;5077565;28;20135;-46
2022/06/30 06:14:06;;;;;;;0.30;0.10;;;28.50;40.70;;;;;;5081138;28;20115;-51
2022/06/30 06:16:34;;;;;;;0.10;0.10;;;28.50;40.10;;;;;;5072536;28;20043;-48
2022/06/30 06:19:01;;;;;;;1.25;0.10;;;28.50;40.20;;;;;;5083580;28;20111;-48
2022/06/30 06:21:28;;;;;;;0.47;0.10;;;28.50;40.20;;;;;;5074199;28;20041;-48
2022/06/30 06:23:57;;;;;;;0.65;0.10;;;28.50;40.20;;;;;;5074941;28;20397;-46
2022/06/30 06:26:24;;;;;;;1.17;0.10;;;28.50;40.20;;;;;;5076425;28;20058;-48
2022/06/30 06:29:07;;;;;;;0.75;0.00;;;28.50;40.20;;;;;;5066510;28;20032;-48
2022/06/30 06:31:35;;;;;;;1.40;0.20;;;28.50;40.20;;;;;;5068245;28;20043;-48
2022/06/30 06:34:04;;;;;;;2.13;0.10;;;28.50;40.30;;;;;;5071349;28;20048;-49
2022/06/30 06:36:32;;;;;;;0.38;0.10;;;28.40;40.20;;;;;;5072358;28;20686;-47
2022/06/30 06:39:00;;;;;;;1.67;0.10;;;28.40;40.20;;;;;;5053984;28;20037;-46
2022/06/30 06:41:28;;;;;;;1.50;0.10;;;28.40;40.30;;;;;;5075352;28;20059;-46
2022/06/30 06:43:55;;;;;;;1.75;0.10;;;28.40;40.30;;;;;;5069992;28;20036;-45
2022/06/30 06:46:26;;;;;;;1.70;0.10;;;28.40;40.30;;;;;;5083461;28;20131;-47
2022/06/30 06:48:55;;;;;;;3.17;0.10;;;28.40;40.30;;;;;;5072338;28;20049;-46
2022/06/30 06:51:22;;;;;;;2.03;0.10;;;28.40;40.40;;;;;;5076030;28;20044;-46
2022/06/30 06:53:49;;;;;;;1.10;0.25;;;28.40;40.40;;;;;;5070199;28;20656;-48
2022/06/30 06:56:18;;;;;;;1.48;0.40;;;28.40;40.40;;;;;;5073454;28;20409;-49
2022/06/30 06:58:46;;;;;;;0.75;0.00;;;28.40;40.40;;;;;;5072548;28;20524;-47
2022/06/30 07:01:13;;;;;;;0.75;0.20;;;28.40;40.50;;;;;;5069726;28;20516;-50
2022/06/30 07:03:40;;;;;;;0.85;0.20;;;28.40;40.40;;;;;;5075596;28;20734;-46
2022/06/30 07:06:08;;;;;;;0.43;0.10;;;28.40;40.50;;;;;;5077329;28;20040;-46
2022/06/30 07:08:36;;;;;;;0.50;0.10;;;28.40;40.50;;;;;;5082543;28;20551;-47
2022/06/30 07:11:04;;;;;;;1.05;0.13;;;28.40;40.50;;;;;;5061180;28;20056;-48
2022/06/30 07:13:35;;;;;;;0.88;0.20;;;28.40;40.50;;;;;;5084209;28;20036;-46
2022/06/30 07:16:03;;;;;;;1.60;0.10;;;28.40;40.50;;;;;;5076370;28;20044;-50
2022/06/30 07:18:30;;;;;;;0.90;0.20;;;28.40;40.50;;;;;;5081229;28;20068;-50
2022/06/30 07:20:58;;;;;;;0.25;0.10;;;28.40;40.50;;;;;;5077139;28;20075;-50
2022/06/30 07:23:25;;;;;;;1.13;0.55;;;28.40;40.60;;;;;;5076954;28;20085;-52
2022/06/30 07:25:53;;;;;;;0.50;0.15;;;28.40;40.50;;;;;;5077145;28;20519;-53
2022/06/30 07:28:21;;;;;;;1.15;0.20;;;28.40;40.60;;;;;;5075106;28;20101;-52
2022/06/30 07:30:52;;;;;;;0.30;0.10;;;28.40;40.60;;;;;;5072694;28;20040;-45
2022/06/30 07:33:19;;;;;;;1.00;0.10;;;28.40;40.60;;;;;;5081018;28;20151;-50
2022/06/30 07:35:46;;;;;;;0.10;0.10;;;28.40;40.60;;;;;;5079521;28;20047;-46
2022/06/30 07:38:13;;;;;;;0.82;0.25;;;28.40;40.70;;;;;;5073231;28;20126;-50
2022/06/30 07:40:40;;;;;;;1.30;0.20;;;28.30;40.60;;;;;;5071618;28;20405;-47
2022/06/30 07:43:08;;;;;;;0.20;0.20;;;28.40;40.70;;;;;;5073493;28;20052;-47
2022/06/30 07:45:35;;;;;;;0.30;0.08;;;28.30;40.60;;;;;;5089049;28;20469;-47
2022/06/30 07:48:04;;;;;;;0.93;0.10;;;28.30;40.60;;;;;;5076182;28;20072;-46
2022/06/30 07:50:32;;;;;;;0.10;0.10;;;28.30;40.70;;;;;;5077129;28;20151;-47
2022/06/30 07:52:59;;;;;;;1.75;0.17;;;28.30;40.70;;;;;;5074717;28;20047;-48
2022/06/30 07:55:26;;;;;;;0.82;0.03;;;28.30;40.70;;;;;;5069238;28;20094;-47
2022/06/30 07:57:54;;;;;;;1.08;0.17;;;28.30;40.70;;;;;;5074545;28;20051;-48
2022/06/30 08:00:24;;;;;;;0.25;0.00;;;28.30;40.70;;;;;;5077253;28;20048;-45
2022/06/30 08:02:51;;;;;;;3.80;0.30;;;28.30;40.70;;;;;;5072685;28;20485;-46
2022/06/30 08:05:21;;;;;;;0.65;0.30;;;28.30;40.70;;;;;;5075342;28;20123;-47
2022/06/30 08:07:48;;;;;;;1.60;0.10;;;28.30;40.80;;;;;;5072008;28;20050;-48
2022/06/30 08:10:16;;;;;;;0.10;0.00;;;28.30;40.80;;;;;;5072645;28;20067;-48
2022/06/30 08:12:43;;;;;;;1.23;0.68;;;28.30;40.80;;;;;;5086178;28;20056;-48
2022/06/30 08:15:11;;;;;;;0.75;0.05;;;28.30;40.80;;;;;;5073041;28;20477;-47
2022/06/30 08:17:38;;;;;;;0.95;0.03;;;28.30;40.80;;;;;;5076433;28;20124;-46
2022/06/30 08:20:07;;;;;;;0.45;0.43;;;28.30;40.90;;;;;;5072491;28;20058;-46
2022/06/30 08:22:35;;;;;;;0.40;0.00;;;28.20;40.80;;;;;;5078454;28;20064;-46
2022/06/30 08:25:03;;;;;;;0.82;0.10;;;28.30;40.90;;;;;;5076048;28;20051;-45
2022/06/30 08:27:31;;;;;;;0.30;0.10;;;28.20;40.80;;;;;;5078776;28;20048;-48
2022/06/30 08:29:58;;;;;;;0.10;0.10;;;28.20;40.80;;;;;;5072290;28;20052;-52
2022/06/30 08:32:25;;;;;;;0.28;0.08;;;28.30;40.90;;;;;;5075384;28;20071;-50
2022/06/30 08:34:53;;;;;;;1.13;0.10;;;28.30;41.00;;;;;;5072940;28;20047;-52
2022/06/30 08:37:20;;;;;;;0.95;0.10;;;28.20;40.90;;;;;;5061175;28;20049;-46
2022/06/30 08:42:36;;;;;;;0.10;0.10;;;28.30;41.00;;;;;;5073983;28;20109;-48
2022/06/30 08:45:17;;;;;;;0.65;0.40;;;28.20;41.00;;;;;;5078276;28;20064;-49
2022/06/30 08:47:45;;;;;;;1.00;0.10;;;28.20;41.00;;;;;;5071968;28;20071;-45
2022/06/30 08:50:14;;;;;;;0.28;0.10;;;28.20;41.00;;;;;;5075013;28;20081;-47
2022/06/30 08:52:46;;;;;;;0.30;0.15;;;28.20;41.00;;;;;;5071475;28;20462;-48
2022/06/30 08:55:17;;;;;;;0.70;0.10;;;28.20;41.00;;;;;;5074049;28;20422;-45
2022/06/30 08:57:46;;;;;;;0.17;0.08;;;28.20;41.10;;;;;;5069262;28;20060;-46
2022/06/30 09:00:16;;;;;;;0.68;0.10;;;28.20;41.00;;;;;;5077325;28;20468;-52
2022/06/30 09:02:43;;;;;;;0.75;0.68;;;28.20;41.00;;;;;;5078617;28;20032;-46
2022/06/30 09:05:11;;;;;;;0.50;0.10;;;28.20;41.10;;;;;;5080042;28;20052;-48
2022/06/30 09:07:39;;;;;;;0.75;0.00;;;28.20;41.00;;;;;;5069466;28;20077;-45
2022/06/30 09:10:07;;;;;;;0.10;0.10;;;28.20;41.10;;;;;;5078334;28;20048;-48
2022/06/30 09:12:36;;;;;;;0.70;0.10;;;28.20;41.00;;;;;;5087375;28;20040;-48
2022/06/30 09:15:04;;;;;;;0.40;0.20;;;28.20;41.10;;;;;;5074771;28;20043;-48
2022/06/30 09:17:32;;;;;;;0.63;0.10;;;28.20;41.10;;;;;;5074124;28;20047;-46
2022/06/30 09:20:02;;;;;;;1.33;0.22;;;28.20;41.10;;;;;;5071515;28;20113;-49
2022/06/30 09:22:31;;;;;;;0.20;0.10;;;28.20;41.10;;;;;;5068486;28;20064;-46
2022/06/30 09:25:00;;;;;;;1.23;0.35;;;28.20;41.20;;;;;;5076128;28;20052;-51
2022/06/30 09:27:30;;;;;;;0.10;0.10;;;28.20;41.20;;;;;;5073952;28;20106;-49
2022/06/30 09:30:03;;;;;;;0.32;0.10;;;28.10;41.10;;;;;;5071640;28;20044;-47
2022/06/30 09:32:30;;;;;;;1.27;0.10;;;28.20;41.20;;;;;;5073771;28;20048;-50
2022/06/30 09:35:10;;;;;;;0.52;0.10;;;28.20;41.20;;;;;;5072636;28;20043;-45
2022/06/30 09:37:38;;;;;;;0.40;0.10;;;28.20;41.20;;;;;;5071969;28;20044;-45
2022/06/30 09:40:07;;;;;;;0.50;0.10;;;28.10;41.10;;;;;;5051569;28;20404;-45
2022/06/30 09:42:42;;;;;;;0.08;0.03;;;28.10;41.20;;;;;;5076089;28;20838;-45
2022/06/30 09:45:13;;;;;;;1.10;0.00;;;28.20;41.20;;;;;;5074373;28;20064;-45
2022/06/30 09:47:53;;;;;;;0.10;0.10;;;28.10;41.20;;;;;;5070789;28;20542;-47
2022/06/30 09:50:21;;;;;;;0.20;0.10;;;28.20;41.20;;;;;;5075442;28;20464;-53
2022/06/30 09:53:09;;;;;;;1.27;0.10;;;28.20;41.30;;;;;;5069742;28;20093;-50
2022/06/30 09:55:38;;;;;;;0.73;0.10;;;28.10;41.10;;;;;;5069466;28;20040;-46
2022/06/30 09:58:06;;;;;;;0.15;0.05;;;28.10;41.20;;;;;;5068195;28;20044;-48
2022/06/30 10:00:43;;;;;;;0.30;0.10;;;28.10;41.20;;;;;;5076206;28;20051;-45
2022/06/30 10:03:11;;;;;;;0.55;0.10;;;28.10;41.20;;;;;;5076457;28;20072;-51
2022/06/30 10:05:43;;;;;;;0.85;0.10;;;28.10;41.20;;;;;;5071061;28;20056;-51
2022/06/30 10:08:12;;;;;;;0.60;0.00;;;28.10;41.20;;;;;;5071066;28;20043;-51
2022/06/30 10:10:41;;;;;;;0.03;0.00;;;28.10;41.20;;;;;;5070327;28;20047;-51
2022/06/30 10:13:13;;;;;;;1.48;0.00;;;28.10;41.30;;;;;;5072705;28;20092;-48
2022/06/30 10:15:45;;;;;;;0.57;0.00;;;28.10;41.30;;;;;;5072620;28;20559;-47
2022/06/30 10:18:13;;;;;;;1.80;0.10;;;28.10;41.30;;;;;;5076061;28;20098;-48
2022/06/30 10:20:41;;;;;;;2.30;0.10;;;28.10;41.30;;;;;;5076993;28;20066;-45
2022/06/30 10:23:09;;;;;;;0.98;0.10;;;28.10;41.30;;;;;;5070975;28;20233;-45
2022/06/30 10:25:37;;;;;;;1.48;0.10;;;28.10;41.30;;;;;;5072424;28;20051;-49
2022/06/30 10:28:05;;;;;;;1.30;0.00;;;28.10;41.30;;;;;;5072570;28;20063;-47
2022/06/30 10:30:45;;;;;;;0.57;0.10;;;28.10;41.30;;;;;;5086439;28;20064;-49
2022/06/30 10:33:20;;;;;;;0.15;0.10;;;28.10;41.30;;;;;;5078544;28;20044;-50
2022/06/30 10:35:52;;;;;;;1.30;0.30;;;28.10;41.90;;;;;;5079207;28;20094;-47
2022/06/30 10:38:30;;;;;;;0.80;0.10;;;28.10;41.30;;;;;;5074813;28;20040;-47
2022/06/30 10:41:07;;;;;;;0.15;0.05;;;28.10;41.40;;;;;;5075395;28;20051;-46
2022/06/30 10:43:34;;;;;;;0.40;0.03;;;28.00;41.30;;;;;;5077947;28;20117;-45
2022/06/30 10:46:04;;;;;;;0.10;0.10;;;28.00;41.30;;;;;;5075349;28;20053;-46
2022/06/30 10:48:50;;;;;;;1.60;0.03;;;28.00;41.30;;;;;;5075958;28;20413;-49
2022/06/30 10:51:17;;;;;;;0.00;0.00;;;28.00;41.30;;;;;;5079475;28;20052;-48
2022/06/30 10:53:56;;;;;;;0.10;0.00;;;28.00;41.30;;;;;;5078304;28;20043;-49
2022/06/30 10:56:25;;;;;;;0.28;0.00;;;28.00;41.40;;;;;;5074413;28;20119;-45
2022/06/30 10:59:06;;;;;;;0.73;0.00;;;28.00;41.40;;;;;;5074541;28;20075;-45
2022/06/30 11:01:35;;;;;;;1.17;0.20;;;28.00;41.40;;;;;;5072343;28;20032;-48
2022/06/30 11:04:05;;;;;;;0.95;0.20;;;28.00;41.60;;;;;;5075459;28;20056;-48
2022/06/30 11:07:01;;;;;;;1.05;0.05;;;28.00;41.50;;;;;;5080336;28;20508;-46
2022/06/30 11:10:05;;;;;;;0.45;0.00;;;28.00;41.40;;;;;;5074615;28;20048;-49
2022/06/30 11:13:00;;;;;;;0.52;0.10;;;28.00;41.50;;;;;;5080407;28;20044;-44
2022/06/30 11:15:53;;;;;;;1.02;0.10;;;28.00;41.50;;;;;;5031301;28;20049;-48
2022/06/30 11:18:23;;;;;;;1.08;0.00;;;28.00;41.50;;;;;;5021428;28;20049;-46
2022/06/30 11:20:52;;;;;;;0.30;0.10;;;28.00;41.60;;;;;;5022945;28;20045;-45
2022/06/30 11:23:21;;;;;;;0.60;0.00;;;28.00;41.60;;;;;;5015766;28;20049;-45
2022/06/30 11:28:39;;;;;;;0.38;0.10;;;28.00;41.60;;;;;;5010850;28;20053;-48
2022/06/30 11:31:23;;;;;;;0.20;0.17;;;28.00;41.60;;;;;;5020161;28;20116;-47
2022/06/30 11:33:58;;;;;;;1.60;0.43;;;28.00;41.50;;;;;;5007478;28;20146;-50
2022/06/30 11:36:25;;;;;;;0.10;0.10;;;28.00;41.60;;;;;;5022944;28;20053;-52
2022/06/30 11:38:55;;;;;;;0.88;0.10;;;27.90;41.50;;;;;;5023733;28;20814;-48
2022/06/30 11:44:09;;;;;;;2.85;0.00;;;28.00;41.60;;;;;;5025913;28;20460;-50
2022/06/30 11:46:51;;;;;;;1.17;0.10;;;28.00;41.60;;;;;;5009488;28;20057;-47
2022/06/30 11:49:21;;;;;;;2.42;0.20;;;28.00;41.50;;;;;;5006539;28;20061;-47
2022/06/30 11:51:48;;;;;;;1.95;0.10;;;28.00;41.60;;;;;;5060218;28;20135;-46
2022/06/30 11:54:17;;;;;;;0.20;0.10;;;28.00;41.60;;;;;;5074361;28;20052;-45
2022/06/30 11:56:50;;;;;;;0.10;0.10;;;28.00;41.60;;;;;;5080401;28;20715;-47
2022/06/30 11:59:17;;;;;;;0.20;0.10;;;28.00;41.70;;;;;;5079405;28;20112;-44
2022/06/30 12:02:00;;;;;;;0.28;0.00;;;28.00;41.70;;;;;;5071790;28;20036;-46
2022/06/30 12:04:28;;;;;;;0.50;0.10;;;28.00;41.60;;;;;;5069176;28;20090;-45
2022/06/30 12:06:56;;;;;;;0.32;0.00;;;28.00;41.70;;;;;;5071266;28;20063;-45
2022/06/30 12:09:23;;;;;;;2.40;0.10;;;28.00;41.70;;;;;;5076865;28;20052;-45
2022/06/30 12:11:52;;;;;;;0.10;0.10;;;28.00;41.70;;;;;;5079301;28;20045;-45
2022/06/30 12:14:19;;;;;;;0.70;0.10;;;28.00;41.70;;;;;;5072632;28;20106;-47
2022/06/30 12:16:46;;;;;;;0.52;0.10;;;28.00;41.70;;;;;;5072044;28;20089;-45
2022/06/30 12:19:17;;;;;;;1.95;0.15;;;28.10;41.80;;;;;;5071708;28;20044;-45
2022/06/30 12:21:46;;;;;;;0.80;0.10;;;28.10;41.80;;;;;;5075377;28;20051;-48
2022/06/30 12:24:14;;;;;;;0.50;0.50;;;28.10;41.70;;;;;;5073782;28;20094;-48
2022/06/30 12:26:49;;;;;;;0.57;0.10;;;28.10;41.70;;;;;;5077865;28;20051;-46
2022/06/30 12:29:19;;;;;;;1.23;0.00;;;28.10;41.60;;;;;;5075947;28;20060;-49
2022/06/30 12:31:58;;;;;;;0.15;0.13;;;28.10;41.60;;;;;;5072855;28;20055;-48
2022/06/30 12:34:26;;;;;;;0.68;0.20;;;28.10;41.60;;;;;;5079413;28;20040;-46
2022/06/30 12:37:00;;;;;;;0.20;0.10;;;28.10;41.60;;;;;;5075577;28;20593;-45
2022/06/30 12:39:28;;;;;;;0.30;0.10;;;28.10;41.60;;;;;;5075495;28;20044;-48
2022/06/30 12:42:04;;;;;;;0.10;0.10;;;28.10;41.60;;;;;;5081426;28;20089;-46
2022/06/30 12:44:31;;;;;;;;;;;28.10;41.60;;;;;;5081618;28;20705;-45
2022/06/30 12:47:04;;;;;;;1.55;0.08;;;28.10;41.50;;;;;;5072926;28;19924;-48
2022/06/30 12:49:31;;;;;;;0.43;0.08;;;28.10;41.70;;;;;;5073703;28;20068;-46
2022/06/30 12:52:00;;;;;;;0.85;0.20;;;28.00;41.70;;;;;;5070266;28;20059;-46
2022/06/30 12:54:28;;;;;;;0.60;0.38;;;28.10;41.70;;;;;;5072608;28;20040;-47
2022/06/30 12:57:03;;;;;;;0.52;0.20;;;28.10;41.70;;;;;;5078330;28;20454;-47
2022/06/30 12:59:30;;;;;;;0.10;0.00;;;28.10;41.60;;;;;;5072863;28;20086;-46
2022/06/30 13:02:00;;;;;;;0.52;0.10;;;28.10;41.60;;;;;;5072860;28;20210;-46
2022/06/30 13:04:30;;;;;;;0.40;0.38;;;28.10;41.60;;;;;;5070103;28;20086;-47
2022/06/30 13:07:00;;;;;;;0.32;0.10;;;28.10;41.60;;;;;;5067741;28;20144;-45
2022/06/30 13:09:29;;;;;;;0.77;0.00;;;28.10;41.70;;;;;;5071313;28;20406;-47
2022/06/30 13:11:58;;;;;;;1.45;0.10;;;28.10;41.60;;;;;;5076322;28;20453;-50
2022/06/30 13:14:27;;;;;;;0.45;0.05;;;28.10;41.50;;;;;;5071525;28;20044;-47
2022/06/30 13:16:55;;;;;;;0.30;0.30;;;28.10;41.50;;;;;;5072071;28;20615;-46
2022/06/30 13:19:23;;;;;;;2.83;0.00;;;28.10;41.50;;;;;;5070042;28;20056;-46